Suttons Bay, MI

2:02 PM EDT on May 27, 2015 (GMT -0400)
Antrim County | | Change Station
CLOSE
Current Station
Airport
Location: Bellaire,
Elevation: 623 ft
Nearby Weather Stations

Elev 623 ft 44.99 °N, 85.20 °W | Updated 7 minutes ago

Overcast
Overcast
59 °F
Feels Like 59 °F
N
6
Wind Variable Wind from West

Today
High -- | Low -- °F
--% Chance of Precip.
Yesterday
High -- | Low -- °F
Precip. -- in
6:02 AM 9:17 PM
Waxing Gibbous, 69% visible
Pressure 29.88 in
Visibility 2.5 miles
Clouds Overcast 700 ft
Dew Point 57 °F
Humidity 91%
Rainfall 0.00 in
Snow Depth Not available.
UV 3 out of 12
Pollen 6.20 out of 12
Air Quality Not available.
Flu Activity Sporadic
METAR KACB 271755Z AUTO 26005KT 2 1/2SM BR OVC007 15/14 A2988 RMK AO2 T01520138 10182 20151

More Conditions Fewer Conditions

Pressure 29.88 in
Visibility 2.5 miles
Clouds Overcast 700 ft
Dew Point 57 °F
Humidity 91%
Rainfall 0.00 in
Snow Depth Not available.
UV 3 out of 12
Pollen 6.20 out of 12
Air Quality Not available.
Flu Activity Sporadic
METAR KACB 271755Z AUTO 26005KT 2 1/2SM BR OVC007 15/14 A2988 RMK AO2 T01520138 10182 20151

More Conditions Fewer Conditions

Nowcast | as of 2:00 PM EDT on May 27, 2015

At 3 PM...rain and drizzle likely. Temperature 59. West winds 11 mph. At 5 PM...rain and drizzle likely. Temperature 61. West winds 10 mph. At 7 PM...rain and drizzle likely. Temperature 60. West winds 8 mph. At 9 PM...partly cloudy. Slight chance of showers. Temperature 54. West winds 6 mph.

×

10-Day Weather Forecast

Almanac

Astronomy

May. 27, 2015 Rise Set
Actual Time
Civil Twilight
Nautical Twilight
Astronomical Twilight
Moon
Length of Visible Light
Length of Day
Tomorrow will be .
, % of the Moon is Illuminated

Today's Extremes

State Highs State Lows

Community

WunderPhotos

Upload Photos

1,824,736 photos uploaded!

WunderBlogs® & News

Nearby

Air Quality

  Air Quality AQ Index Pollutant
Not available.

Snow Depth

Station Depth Elevation

Earthquake Activity

City Distance Mag. Time & Date
Minimum magnitude displayed is 2.5.

Coastal Water Temperatures

Place Temperature

Stations

Nearby Weather Stations

Station Location Temp. Windchill Dew Point Humidity Wind Precip. Elev Updated Type